sensor_id;sensor_type;location;lat;lon;timestamp;pressure;altitude;pressure_sealevel;temperature;humidity
18697;BME280;22617;43.690;27.956;2023-05-12T00:02:08;99466.34;;;8.01;84.68
18697;BME280;22617;43.690;27.956;2023-05-12T00:07:12;99463.00;;;8.09;84.97
18697;BME280;22617;43.690;27.956;2023-05-12T00:12:16;99468.19;;;8.09;85.12
18697;BME280;22617;43.690;27.956;2023-05-12T00:17:20;99469.94;;;8.12;85.35
18697;BME280;22617;43.690;27.956;2023-05-12T00:22:24;99459.47;;;8.04;85.68
18697;BME280;22617;43.690;27.956;2023-05-12T00:27:29;99462.88;;;8.02;85.80
18697;BME280;22617;43.690;27.956;2023-05-12T00:32:34;99453.97;;;7.83;86.14
18697;BME280;22617;43.690;27.956;2023-05-12T00:37:38;99456.72;;;7.94;87.04
18697;BME280;22617;43.690;27.956;2023-05-12T00:42:42;99455.69;;;7.81;87.05
18697;BME280;22617;43.690;27.956;2023-05-12T00:47:46;99454.84;;;7.83;87.00
18697;BME280;22617;43.690;27.956;2023-05-12T00:52:50;99463.38;;;7.75;87.20
18697;BME280;22617;43.690;27.956;2023-05-12T00:57:55;99453.75;;;7.66;87.09
18697;BME280;22617;43.690;27.956;2023-05-12T01:03:01;99456.44;;;7.74;87.22
18697;BME280;22617;43.690;27.956;2023-05-12T01:08:06;99454.78;;;7.79;87.51
18697;BME280;22617;43.690;27.956;2023-05-12T01:13:12;99451.28;;;7.75;86.56
18697;BME280;22617;43.690;27.956;2023-05-12T01:18:17;99452.09;;;7.71;86.48
18697;BME280;22617;43.690;27.956;2023-05-12T01:23:26;99463.28;;;7.69;86.22
18697;BME280;22617;43.690;27.956;2023-05-12T01:28:35;99442.66;;;7.76;85.60
18697;BME280;22617;43.690;27.956;2023-05-12T01:33:41;99447.81;;;7.75;84.90
18697;BME280;22617;43.690;27.956;2023-05-12T01:38:44;99439.94;;;7.67;84.79
18697;BME280;22617;43.690;27.956;2023-05-12T01:43:50;99443.28;;;7.60;85.88
18697;BME280;22617;43.690;27.956;2023-05-12T01:48:54;99449.44;;;7.68;86.11
18697;BME280;22617;43.690;27.956;2023-05-12T01:53:57;99449.44;;;7.68;86.50
18697;BME280;22617;43.690;27.956;2023-05-12T01:59:07;99443.38;;;7.66;86.36
18697;BME280;22617;43.690;27.956;2023-05-12T02:04:12;99447.78;;;7.73;86.43
18697;BME280;22617;43.690;27.956;2023-05-12T02:09:16;99445.19;;;7.72;86.65
18697;BME280;22617;43.690;27.956;2023-05-12T02:14:21;99436.66;;;7.82;86.36
18697;BME280;22617;43.690;27.956;2023-05-12T02:19:25;99435.03;;;7.88;85.09
18697;BME280;22617;43.690;27.956;2023-05-12T02:24:31;99428.22;;;7.95;84.59
18697;BME280;22617;43.690;27.956;2023-05-12T02:29:37;99435.06;;;7.92;84.10
18697;BME280;22617;43.690;27.956;2023-05-12T02:34:41;99438.59;;;7.95;83.65
18697;BME280;22617;43.690;27.956;2023-05-12T02:39:45;99435.84;;;7.84;83.22
18697;BME280;22617;43.690;27.956;2023-05-12T02:44:50;99429.81;;;7.87;83.20
18697;BME280;22617;43.690;27.956;2023-05-12T02:49:53;99433.47;;;8.00;83.24
18697;BME280;22617;43.690;27.956;2023-05-12T02:54:58;99441.31;;;8.07;83.20
18697;BME280;22617;43.690;27.956;2023-05-12T03:00:05;99436.91;;;7.99;82.42
18697;BME280;22617;43.690;27.956;2023-05-12T03:05:33;99442.13;;;8.00;82.75
18697;BME280;22617;43.690;27.956;2023-05-12T03:10:37;99450.84;;;8.07;83.15
18697;BME280;22617;43.690;27.956;2023-05-12T03:15:42;99447.44;;;8.11;82.81
18697;BME280;22617;43.690;27.956;2023-05-12T03:20:45;99455.28;;;8.14;82.78
18697;BME280;22617;43.690;27.956;2023-05-12T03:25:49;99463.06;;;8.14;83.11
18697;BME280;22617;43.690;27.956;2023-05-12T03:30:55;99466.69;;;8.26;84.05
18697;BME280;22617;43.690;27.956;2023-05-12T03:35:59;99463.34;;;8.34;84.22
18697;BME280;22617;43.690;27.956;2023-05-12T03:41:03;99464.31;;;8.42;85.28
18697;BME280;22617;43.690;27.956;2023-05-12T03:46:09;99465.31;;;8.54;85.96
18697;BME280;22617;43.690;27.956;2023-05-12T03:51:13;99466.28;;;8.62;85.97
18697;BME280;22617;43.690;27.956;2023-05-12T03:56:17;99466.44;;;8.79;86.72
18697;BME280;22617;43.690;27.956;2023-05-12T04:01:23;99469.16;;;8.90;87.33
18697;BME280;22617;43.690;27.956;2023-05-12T04:06:26;99464.91;;;8.98;87.85
18697;BME280;22617;43.690;27.956;2023-05-12T04:11:31;99465.81;;;9.03;87.74
18697;BME280;22617;43.690;27.956;2023-05-12T04:16:36;99465.06;;;9.13;88.05
18697;BME280;22617;43.690;27.956;2023-05-12T04:21:41;99467.81;;;9.30;87.80
18697;BME280;22617;43.690;27.956;2023-05-12T04:26:45;99476.63;;;9.44;87.83
18697;BME280;22617;43.690;27.956;2023-05-12T04:31:50;99471.56;;;9.63;87.46
18697;BME280;22617;43.690;27.956;2023-05-12T04:36:54;99467.34;;;9.82;87.05
18697;BME280;22617;43.690;27.956;2023-05-12T04:41:59;99467.44;;;9.99;87.23
18697;BME280;22617;43.690;27.956;2023-05-12T04:47:06;99467.50;;;10.06;86.25
18697;BME280;22617;43.690;27.956;2023-05-12T04:52:10;99464.91;;;10.13;85.51
18697;BME280;22617;43.690;27.956;2023-05-12T04:57:13;99466.78;;;10.32;85.71
18697;BME280;22617;43.690;27.956;2023-05-12T05:02:19;99466.84;;;10.48;85.93
18697;BME280;22617;43.690;27.956;2023-05-12T05:07:23;99466.03;;;10.66;85.38
18697;BME280;22617;43.690;27.956;2023-05-12T05:12:27;99464.38;;;10.83;85.07
18697;BME280;22617;43.690;27.956;2023-05-12T05:17:33;99473.97;;;11.03;84.30
18697;BME280;22617;43.690;27.956;2023-05-12T05:22:37;99473.09;;;11.19;83.91
18697;BME280;22617;43.690;27.956;2023-05-12T05:27:42;99471.38;;;11.34;82.31
18697;BME280;22617;43.690;27.956;2023-05-12T05:32:47;99472.22;;;11.61;82.08
18697;BME280;22617;43.690;27.956;2023-05-12T05:37:51;99477.47;;;11.64;80.73
18697;BME280;22617;43.690;27.956;2023-05-12T05:42:56;99485.31;;;11.82;80.39
18697;BME280;22617;43.690;27.956;2023-05-12T05:48:02;99485.28;;;11.90;79.05
18697;BME280;22617;43.690;27.956;2023-05-12T05:53:06;99487.03;;;11.91;78.04
18697;BME280;22617;43.690;27.956;2023-05-12T05:58:10;99487.03;;;12.01;77.19
18697;BME280;22617;43.690;27.956;2023-05-12T06:03:15;99487.00;;;12.16;77.69
18697;BME280;22617;43.690;27.956;2023-05-12T06:08:19;99486.09;;;12.27;76.24
18697;BME280;22617;43.690;27.956;2023-05-12T06:13:23;99486.06;;;12.28;74.07
18697;BME280;22617;43.690;27.956;2023-05-12T06:18:29;99491.22;;;12.52;74.18
18697;BME280;22617;43.690;27.956;2023-05-12T06:23:34;99487.75;;;12.50;75.06
18697;BME280;22617;43.690;27.956;2023-05-12T06:28:38;99490.34;;;12.61;75.26
18697;BME280;22617;43.690;27.956;2023-05-12T06:33:43;99497.28;;;12.57;70.65
18697;BME280;22617;43.690;27.956;2023-05-12T06:38:47;99494.63;;;12.74;70.04
18697;BME280;22617;43.690;27.956;2023-05-12T06:43:52;99495.50;;;12.73;70.43
18697;BME280;22617;43.690;27.956;2023-05-12T06:49:03;99501.56;;;12.84;70.45
18697;BME280;22617;43.690;27.956;2023-05-12T06:54:09;99505.91;;;12.84;70.73
18697;BME280;22617;43.690;27.956;2023-05-12T06:59:12;99516.25;;;13.06;71.10
18697;BME280;22617;43.690;27.956;2023-05-12T07:04:17;99510.94;;;13.20;68.82
18697;BME280;22617;43.690;27.956;2023-05-12T07:09:21;99506.63;;;13.18;67.75
18697;BME280;22617;43.690;27.956;2023-05-12T07:14:24;99512.56;;;13.41;67.33
18697;BME280;22617;43.690;27.956;2023-05-12T07:19:30;99507.19;;;13.58;66.99
18697;BME280;22617;43.690;27.956;2023-05-12T07:24:33;99512.31;;;13.74;66.39
18697;BME280;22617;43.690;27.956;2023-05-12T07:29:37;99502.69;;;13.76;66.23
18697;BME280;22617;43.690;27.956;2023-05-12T07:34:42;99504.28;;;13.91;65.15
18697;BME280;22617;43.690;27.956;2023-05-12T07:39:45;99511.19;;;14.00;63.76
18697;BME280;22617;43.690;27.956;2023-05-12T07:44:49;99517.38;;;13.95;61.30
18697;BME280;22617;43.690;27.956;2023-05-12T07:49:54;99511.16;;;14.03;61.62
18697;BME280;22617;43.690;27.956;2023-05-12T07:54:57;99514.59;;;14.09;59.95
18697;BME280;22617;43.690;27.956;2023-05-12T08:00:01;99503.78;;;14.41;60.13
18697;BME280;22617;43.690;27.956;2023-05-12T08:05:15;99507.69;;;14.78;60.57
18697;BME280;22617;43.690;27.956;2023-05-12T08:10:19;99514.91;;;15.27;57.77
18697;BME280;22617;43.690;27.956;2023-05-12T08:15:27;99516.91;;;15.69;57.57
18697;BME280;22617;43.690;27.956;2023-05-12T08:20:32;99508.84;;;16.28;57.03
18697;BME280;22617;43.690;27.956;2023-05-12T08:25:37;99514.81;;;15.91;55.77
18697;BME280;22617;43.690;27.956;2023-05-12T08:30:42;99509.81;;;15.75;56.07
18697;BME280;22617;43.690;27.956;2023-05-12T08:35:47;99524.41;;;15.92;55.57
18697;BME280;22617;43.690;27.956;2023-05-12T08:41:01;99524.53;;;16.35;55.96
18697;BME280;22617;43.690;27.956;2023-05-12T08:46:10;99517.78;;;16.67;55.56
18697;BME280;22617;43.690;27.956;2023-05-12T08:51:17;99517.94;;;16.59;55.17
18697;BME280;22617;43.690;27.956;2023-05-12T08:56:21;99514.38;;;16.60;52.43
18697;BME280;22617;43.690;27.956;2023-05-12T09:01:29;99523.53;;;16.85;52.78
18697;BME280;22617;43.690;27.956;2023-05-12T09:06:37;99531.34;;;16.88;51.91
18697;BME280;22617;43.690;27.956;2023-05-12T09:11:42;99529.06;;;17.13;52.73
18697;BME280;22617;43.690;27.956;2023-05-12T09:16:47;99524.03;;;17.02;50.39
18697;BME280;22617;43.690;27.956;2023-05-12T09:21:54;99512.00;;;17.31;50.39
18697;BME280;22617;43.690;27.956;2023-05-12T09:26:57;99508.44;;;17.70;50.49
18697;BME280;22617;43.690;27.956;2023-05-12T09:32:02;99502.19;;;17.74;49.72
18697;BME280;22617;43.690;27.956;2023-05-12T09:37:08;99493.41;;;17.74;50.91
18697;BME280;22617;43.690;27.956;2023-05-12T09:42:14;99506.31;;;17.48;48.49
18697;BME280;22617;43.690;27.956;2023-05-12T09:47:18;99496.78;;;17.42;47.72
18697;BME280;22617;43.690;27.956;2023-05-12T09:52:23;99488.72;;;17.85;48.71
18697;BME280;22617;43.690;27.956;2023-05-12T09:57:27;99502.66;;;17.55;48.63
18697;BME280;22617;43.690;27.956;2023-05-12T10:02:31;99502.81;;;17.09;48.27
18697;BME280;22617;43.690;27.956;2023-05-12T10:07:38;99491.00;;;17.65;48.71
18697;BME280;22617;43.690;27.956;2023-05-12T10:12:42;99482.81;;;17.38;50.26
18697;BME280;22617;43.690;27.956;2023-05-12T10:17:47;99495.03;;;17.04;47.73
18697;BME280;22617;43.690;27.956;2023-05-12T10:22:56;99489.28;;;17.25;47.34
18697;BME280;22617;43.690;27.956;2023-05-12T10:28:01;99492.00;;;16.82;46.40
18697;BME280;22617;43.690;27.956;2023-05-12T10:33:06;99486.03;;;17.13;47.23
18697;BME280;22617;43.690;27.956;2023-05-12T10:38:14;99484.50;;;17.04;46.27
18697;BME280;22617;43.690;27.956;2023-05-12T10:43:21;99481.41;;;16.85;45.55
18697;BME280;22617;43.690;27.956;2023-05-12T10:48:26;99491.06;;;16.85;46.46
18697;BME280;22617;43.690;27.956;2023-05-12T10:53:33;99492.34;;;17.07;45.41
18697;BME280;22617;43.690;27.956;2023-05-12T10:59:12;99479.78;;;17.18;44.54
18697;BME280;22617;43.690;27.956;2023-05-12T11:04:18;99477.19;;;17.54;44.74
18697;BME280;22617;43.690;27.956;2023-05-12T11:09:25;99467.09;;;18.05;43.46
18697;BME280;22617;43.690;27.956;2023-05-12T11:14:30;99459.53;;;17.93;43.08
18697;BME280;22617;43.690;27.956;2023-05-12T11:19:34;99469.94;;;18.29;42.89
18697;BME280;22617;43.690;27.956;2023-05-12T11:24:40;99470.50;;;18.08;42.49
18697;BME280;22617;43.690;27.956;2023-05-12T11:29:54;99474.03;;;19.01;41.84
18697;BME280;22617;43.690;27.956;2023-05-12T11:35:08;99465.03;;;18.79;41.69
18697;BME280;22617;43.690;27.956;2023-05-12T11:40:14;99472.63;;;18.60;42.09
18697;BME280;22617;43.690;27.956;2023-05-12T11:45:19;99467.94;;;18.70;42.80
18697;BME280;22617;43.690;27.956;2023-05-12T11:50:24;99472.94;;;19.08;42.60
18697;BME280;22617;43.690;27.956;2023-05-12T11:55:29;99481.38;;;18.61;42.83
18697;BME280;22617;43.690;27.956;2023-05-12T12:00:35;99476.41;;;18.50;42.30
18697;BME280;22617;43.690;27.956;2023-05-12T12:05:40;99480.78;;;17.86;42.11
18697;BME280;22617;43.690;27.956;2023-05-12T12:10:45;99475.78;;;18.08;42.10
18697;BME280;22617;43.690;27.956;2023-05-12T12:15:49;99472.13;;;18.77;41.72
18697;BME280;22617;43.690;27.956;2023-05-12T12:20:54;99477.16;;;18.55;40.44
18697;BME280;22617;43.690;27.956;2023-05-12T12:25:58;99458.16;;;18.10;42.82
18697;BME280;22617;43.690;27.956;2023-05-12T12:31:02;99454.28;;;17.91;42.88
18697;BME280;22617;43.690;27.956;2023-05-12T12:36:07;99471.47;;;17.72;41.67
18697;BME280;22617;43.690;27.956;2023-05-12T12:41:12;99464.16;;;17.48;42.51
18697;BME280;22617;43.690;27.956;2023-05-12T12:46:16;99471.84;;;17.92;42.79
18697;BME280;22617;43.690;27.956;2023-05-12T12:51:20;99465.94;;;18.15;41.60
18697;BME280;22617;43.690;27.956;2023-05-12T12:56:24;99459.75;;;18.17;41.90
18697;BME280;22617;43.690;27.956;2023-05-12T13:01:28;99474.56;;;18.54;41.44
18697;BME280;22617;43.690;27.956;2023-05-12T13:06:32;99455.47;;;18.75;42.53
18697;BME280;22617;43.690;27.956;2023-05-12T13:11:37;99452.84;;;19.03;41.18
18697;BME280;22617;43.690;27.956;2023-05-12T13:16:41;99441.41;;;18.42;42.62
18697;BME280;22617;43.690;27.956;2023-05-12T13:21:47;99458.22;;;17.39;43.33
18697;BME280;22617;43.690;27.956;2023-05-12T13:26:53;99454.50;;;17.11;43.49
18697;BME280;22617;43.690;27.956;2023-05-12T13:31:58;99453.63;;;17.11;43.97
18697;BME280;22617;43.690;27.956;2023-05-12T13:37:02;99458.38;;;16.93;43.92
18697;BME280;22617;43.690;27.956;2023-05-12T13:42:10;99450.34;;;17.01;43.78
18697;BME280;22617;43.690;27.956;2023-05-12T13:47:18;99452.00;;;17.04;43.55
18697;BME280;22617;43.690;27.956;2023-05-12T13:52:24;99454.94;;;16.91;43.01
18697;BME280;22617;43.690;27.956;2023-05-12T13:57:31;99456.25;;;16.72;43.27
18697;BME280;22617;43.690;27.956;2023-05-12T14:02:37;99453.44;;;16.80;43.44
18697;BME280;22617;43.690;27.956;2023-05-12T14:07:49;99459.19;;;16.59;44.01
18697;BME280;22617;43.690;27.956;2023-05-12T14:13:27;99462.47;;;16.68;43.79
18697;BME280;22617;43.690;27.956;2023-05-12T14:18:31;99470.97;;;17.19;43.54
18697;BME280;22617;43.690;27.956;2023-05-12T14:23:36;99457.88;;;17.16;41.94
18697;BME280;22617;43.690;27.956;2023-05-12T14:28:43;99459.97;;;17.39;43.97
18697;BME280;22617;43.690;27.956;2023-05-12T14:33:49;99459.94;;;17.40;43.23
18697;BME280;22617;43.690;27.956;2023-05-12T14:39:17;99465.16;;;17.05;43.33
18697;BME280;22617;43.690;27.956;2023-05-12T14:44:44;99473.63;;;16.79;43.79
18697;BME280;22617;43.690;27.956;2023-05-12T14:49:59;99474.00;;;16.63;43.46
18697;BME280;22617;43.690;27.956;2023-05-12T14:55:18;99473.47;;;16.44;43.97
18697;BME280;22617;43.690;27.956;2023-05-12T15:00:34;99479.72;;;16.40;44.78
18697;BME280;22617;43.690;27.956;2023-05-12T15:05:46;99479.84;;;16.31;45.28
18697;BME280;22617;43.690;27.956;2023-05-12T15:10:56;99473.59;;;16.38;45.58
18697;BME280;22617;43.690;27.956;2023-05-12T15:16:15;99467.56;;;16.31;45.65
18697;BME280;22617;43.690;27.956;2023-05-12T15:21:36;99460.94;;;16.12;44.95
18697;BME280;22617;43.690;27.956;2023-05-12T15:26:48;99454.25;;;15.94;45.21
18697;BME280;22617;43.690;27.956;2023-05-12T15:32:07;99462.16;;;15.93;45.75
18697;BME280;22617;43.690;27.956;2023-05-12T15:37:38;99451.63;;;15.94;45.24
18697;BME280;22617;43.690;27.956;2023-05-12T15:42:51;99444.28;;;15.65;46.19
18697;BME280;22617;43.690;27.956;2023-05-12T15:48:04;99447.84;;;15.61;45.26
18697;BME280;22617;43.690;27.956;2023-05-12T15:53:15;99450.00;;;15.35;46.66
18697;BME280;22617;43.690;27.956;2023-05-12T15:58:33;99448.06;;;15.46;46.00
18697;BME280;22617;43.690;27.956;2023-05-12T16:03:48;99446.53;;;15.35;45.87
18697;BME280;22617;43.690;27.956;2023-05-12T16:09:02;99457.06;;;15.30;46.83
18697;BME280;22617;43.690;27.956;2023-05-12T16:14:25;99457.84;;;15.37;46.42
18697;BME280;22617;43.690;27.956;2023-05-12T16:19:49;99461.44;;;15.31;46.41
18697;BME280;22617;43.690;27.956;2023-05-12T16:24:58;99467.56;;;15.30;46.38
18697;BME280;22617;43.690;27.956;2023-05-12T16:30:14;99465.38;;;15.04;46.09
18697;BME280;22617;43.690;27.956;2023-05-12T16:41:36;99481.47;;;14.78;47.07
18697;BME280;22617;43.690;27.956;2023-05-12T16:46:46;99485.19;;;14.62;48.24
18697;BME280;22617;43.690;27.956;2023-05-12T16:51:51;99481.78;;;14.54;48.00
18697;BME280;22617;43.690;27.956;2023-05-12T16:56:58;99487.13;;;14.44;48.35
18697;BME280;22617;43.690;27.956;2023-05-12T17:02:14;99485.44;;;14.41;47.92
18697;BME280;22617;43.690;27.956;2023-05-12T17:07:33;99486.38;;;14.37;48.50
18697;BME280;22617;43.690;27.956;2023-05-12T17:12:49;99503.03;;;14.28;49.14
18697;BME280;22617;43.690;27.956;2023-05-12T17:18:27;99490.88;;;14.23;49.69
18697;BME280;22617;43.690;27.956;2023-05-12T17:24:13;99500.56;;;14.15;49.85
18697;BME280;22617;43.690;27.956;2023-05-12T17:29:27;99512.75;;;14.19;49.53
18697;BME280;22617;43.690;27.956;2023-05-12T17:34:37;99516.41;;;14.03;49.92
18697;BME280;22617;43.690;27.956;2023-05-12T17:40:19;99529.59;;;13.95;50.79
18697;BME280;22617;43.690;27.956;2023-05-12T17:45:27;99528.81;;;13.84;50.95
18697;BME280;22617;43.690;27.956;2023-05-12T17:50:37;99529.72;;;13.80;51.06
18697;BME280;22617;43.690;27.956;2023-05-12T18:30:48;99527.44;;;13.36;54.92
18697;BME280;22617;43.690;27.956;2023-05-12T18:35:52;99534.41;;;13.34;54.46
18697;BME280;22617;43.690;27.956;2023-05-12T18:40:56;99537.91;;;13.36;55.03
18697;BME280;22617;43.690;27.956;2023-05-12T18:46:01;99533.56;;;13.29;54.83
18697;BME280;22617;43.690;27.956;2023-05-12T18:51:05;99540.59;;;13.25;55.93
18697;BME280;22617;43.690;27.956;2023-05-12T18:56:10;99550.22;;;13.20;56.65
18697;BME280;22617;43.690;27.956;2023-05-12T19:01:15;99549.38;;;13.18;57.94
18697;BME280;22617;43.690;27.956;2023-05-12T19:06:19;99555.47;;;13.14;58.12
18697;BME280;22617;43.690;27.956;2023-05-12T19:11:23;99554.59;;;13.17;58.79
18697;BME280;22617;43.690;27.956;2023-05-12T19:16:28;99549.41;;;13.14;58.27
18697;BME280;22617;43.690;27.956;2023-05-12T19:21:35;99536.31;;;13.07;59.14
18697;BME280;22617;43.690;27.956;2023-05-12T19:26:38;99538.97;;;12.98;59.32
18697;BME280;22617;43.690;27.956;2023-05-12T19:31:43;99534.59;;;13.00;60.17
18697;BME280;22617;43.690;27.956;2023-05-12T19:36:47;99528.47;;;13.00;60.58
18697;BME280;22617;43.690;27.956;2023-05-12T19:41:53;99531.16;;;12.86;60.91
18697;BME280;22617;43.690;27.956;2023-05-12T19:46:58;99518.09;;;12.86;61.26
18697;BME280;22617;43.690;27.956;2023-05-12T19:52:06;99514.69;;;12.69;61.77
18697;BME280;22617;43.690;27.956;2023-05-12T19:57:09;99512.09;;;12.66;61.93
18697;BME280;22617;43.690;27.956;2023-05-12T20:02:15;99517.31;;;12.69;61.74
18697;BME280;22617;43.690;27.956;2023-05-12T20:07:19;99525.19;;;12.58;61.85
18697;BME280;22617;43.690;27.956;2023-05-12T20:12:23;99523.44;;;12.63;62.20
18697;BME280;22617;43.690;27.956;2023-05-12T20:17:28;99518.22;;;12.65;62.64
18697;BME280;22617;43.690;27.956;2023-05-12T20:22:31;99517.31;;;12.63;63.50
18697;BME280;22617;43.690;27.956;2023-05-12T20:27:35;99519.94;;;12.63;63.31
18697;BME280;22617;43.690;27.956;2023-05-12T20:32:40;99522.53;;;12.67;63.14
18697;BME280;22617;43.690;27.956;2023-05-12T20:37:44;99516.50;;;12.55;63.96
18697;BME280;22617;43.690;27.956;2023-05-12T20:42:48;99524.38;;;12.43;64.73
18697;BME280;22617;43.690;27.956;2023-05-12T20:47:53;99523.53;;;12.41;65.07
18697;BME280;22617;43.690;27.956;2023-05-12T20:52:56;99519.16;;;12.34;65.70
18697;BME280;22617;43.690;27.956;2023-05-12T20:58:00;99517.41;;;12.33;66.08
18697;BME280;22617;43.690;27.956;2023-05-12T21:03:05;99523.53;;;12.32;66.37
18697;BME280;22617;43.690;27.956;2023-05-12T21:08:15;99524.41;;;12.34;65.85
18697;BME280;22617;43.690;27.956;2023-05-12T21:13:18;99526.16;;;12.29;66.34
18697;BME280;22617;43.690;27.956;2023-05-12T21:18:24;99527.03;;;12.28;66.00
18697;BME280;22617;43.690;27.956;2023-05-12T21:23:28;99518.34;;;12.13;66.32
18697;BME280;22617;43.690;27.956;2023-05-12T21:28:31;99512.28;;;11.96;67.07
18697;BME280;22617;43.690;27.956;2023-05-12T21:33:36;99520.13;;;11.98;67.15
18697;BME280;22617;43.690;27.956;2023-05-12T21:38:40;99521.00;;;11.92;66.84
18697;BME280;22617;43.690;27.956;2023-05-12T21:43:43;99517.53;;;11.78;66.41
18697;BME280;22617;43.690;27.956;2023-05-12T21:48:48;99516.63;;;11.55;67.50
18697;BME280;22617;43.690;27.956;2023-05-12T21:53:52;99520.97;;;11.59;68.23
18697;BME280;22617;43.690;27.956;2023-05-12T21:58:56;99512.28;;;11.69;67.53
18697;BME280;22617;43.690;27.956;2023-05-12T22:04:01;99516.63;;;11.61;67.74
18697;BME280;22617;43.690;27.956;2023-05-12T22:09:06;99519.22;;;11.30;68.65
18697;BME280;22617;43.690;27.956;2023-05-12T22:14:09;99505.28;;;11.22;68.31
18697;BME280;22617;43.690;27.956;2023-05-12T22:19:14;99500.94;;;11.08;68.66
18697;BME280;22617;43.690;27.956;2023-05-12T22:24:19;99506.97;;;10.88;68.66
18697;BME280;22617;43.690;27.956;2023-05-12T22:29:23;99503.38;;;10.55;69.53
18697;BME280;22617;43.690;27.956;2023-05-12T22:34:28;99496.41;;;10.54;69.33
18697;BME280;22617;43.690;27.956;2023-05-12T22:39:32;99486.84;;;10.54;69.37
18697;BME280;22617;43.690;27.956;2023-05-12T22:44:36;99485.00;;;10.27;68.84
18697;BME280;22617;43.690;27.956;2023-05-12T22:49:41;99480.50;;;10.05;69.45
18697;BME280;22617;43.690;27.956;2023-05-12T22:54:45;99478.69;;;9.90;69.36
18697;BME280;22617;43.690;27.956;2023-05-12T22:59:48;99478.50;;;9.64;69.93
18697;BME280;22617;43.690;27.956;2023-05-12T23:04:54;99475.84;;;9.54;70.98
18697;BME280;22617;43.690;27.956;2023-05-12T23:09:57;99470.63;;;9.57;70.56
18697;BME280;22617;43.690;27.956;2023-05-12T23:15:01;99474.91;;;9.47;70.98
18697;BME280;22617;43.690;27.956;2023-05-12T23:20:08;99470.50;;;9.40;70.04
18697;BME280;22617;43.690;27.956;2023-05-12T23:25:12;99471.97;;;9.12;70.90
18697;BME280;22617;43.690;27.956;2023-05-12T23:30:15;99477.97;;;9.01;70.74
18697;BME280;22617;43.690;27.956;2023-05-12T23:35:20;99469.28;;;9.00;71.67
18697;BME280;22617;43.690;27.956;2023-05-12T23:40:24;99464.94;;;9.02;71.17
18697;BME280;22617;43.690;27.956;2023-05-12T23:45:27;99462.19;;;8.86;70.84
18697;BME280;22617;43.690;27.956;2023-05-12T23:50:33;99467.31;;;8.80;71.95
18697;BME280;22617;43.690;27.956;2023-05-12T23:55:37;99464.69;;;8.78;71.06
